SIA441 VNKT-WSSS
Flight info
| Callsign | SIA441 |
|---|---|
| Flight time | N/A |
| Altitude | 39000 |
| Route | VNKT/02 N0494F390 IGRI1C LALBA R325 CEA L507 SUMSU/N0485F410 L507 BGO M626 IKOGA DCT PASVA Y514 NUFFA DCT PIBAP DCT PASPU DCT NYLON DCT POSUB DCT SANAT DCT WSSS/20R |
| Aircraft | A359/H-SDE2E3GHIJ3J4J5LM1ORWXY/LB1D1 |
Departure
| Time | 2026-05-08 07:28 |
|---|---|
| Airport | Tribhuvan International Airport (VNKT) |
Arrival
| Time | N/A |
|---|---|
| Airport | Singapore Changi Airport (WSSS) |
| Time | Latitude | Longitude | Altitude | Speed | Heading |
|---|---|---|---|---|---|
| 2026-05-08 06:48 | 27.69931 | 85.35834 | 4394 ft | 0 kts | 291° |
| 2026-05-08 07:16 | 27.69928 | 85.35844 | 4397 ft | 4 kts | 290° |
| 2026-05-08 07:16 | 27.69919 | 85.35869 | 4397 ft | 4 kts | 288° |
| 2026-05-08 07:17 | 27.69915 | 85.35893 | 4397 ft | 4 kts | 252° |
| 2026-05-08 07:17 | 27.69926 | 85.35914 | 4397 ft | 4 kts | 218° |
| 2026-05-08 07:17 | 27.69946 | 85.35928 | 4397 ft | 4 kts | 205° |
| 2026-05-08 07:17 | 27.69959 | 85.35935 | 4397 ft | 1 kts | 202° |
| 2026-05-08 07:18 | 27.69961 | 85.35936 | 4397 ft | 0 kts | 202° |
| 2026-05-08 07:21 | 27.69959 | 85.35935 | 4397 ft | 1 kts | 202° |
| 2026-05-08 07:21 | 27.69943 | 85.35928 | 4397 ft | 3 kts | 202° |
| 2026-05-08 07:21 | 27.69913 | 85.35914 | 4397 ft | 6 kts | 202° |
| 2026-05-08 07:21 | 27.69861 | 85.35890 | 4398 ft | 10 kts | 202° |
| 2026-05-08 07:22 | 27.69797 | 85.35861 | 4398 ft | 10 kts | 202° |
| 2026-05-08 07:22 | 27.69730 | 85.35831 | 4398 ft | 11 kts | 202° |
| 2026-05-08 07:22 | 27.69662 | 85.35800 | 4398 ft | 11 kts | 202° |
| 2026-05-08 07:22 | 27.69627 | 85.35784 | 4398 ft | 11 kts | 202° |
| 2026-05-08 07:23 | 27.69570 | 85.35758 | 4399 ft | 11 kts | 202° |
| 2026-05-08 07:23 | 27.69497 | 85.35725 | 4398 ft | 12 kts | 202° |
| 2026-05-08 07:23 | 27.69415 | 85.35688 | 4398 ft | 13 kts | 202° |
| 2026-05-08 07:23 | 27.69329 | 85.35649 | 4398 ft | 13 kts | 202° |
| 2026-05-08 07:24 | 27.69241 | 85.35609 | 4398 ft | 14 kts | 202° |
| 2026-05-08 07:24 | 27.69143 | 85.35567 | 4397 ft | 16 kts | 196° |
| 2026-05-08 07:24 | 27.69056 | 85.35602 | 4398 ft | 14 kts | 129° |
| 2026-05-08 07:24 | 27.68978 | 85.35607 | 4398 ft | 12 kts | 200° |
| 2026-05-08 07:25 | 27.68903 | 85.35574 | 4399 ft | 12 kts | 202° |
| 2026-05-08 07:25 | 27.68822 | 85.35537 | 4399 ft | 14 kts | 202° |
| 2026-05-08 07:25 | 27.68621 | 85.35446 | 4400 ft | 16 kts | 202° |
| 2026-05-08 07:26 | 27.68523 | 85.35402 | 4401 ft | 15 kts | 201° |
| 2026-05-08 07:26 | 27.68456 | 85.35343 | 4401 ft | 12 kts | 238° |
| 2026-05-08 07:26 | 27.68415 | 85.35339 | 4402 ft | 2 kts | 118° |
| 2026-05-08 07:26 | 27.68417 | 85.35347 | 4402 ft | 1 kts | 83° |
| 2026-05-08 07:27 | 27.68421 | 85.35353 | 4402 ft | 3 kts | 56° |
| 2026-05-08 07:27 | 27.68445 | 85.35365 | 4401 ft | 4 kts | 21° |
| 2026-05-08 07:27 | 27.68478 | 85.35381 | 4401 ft | 6 kts | 22° |
| 2026-05-08 07:27 | 27.68590 | 85.35432 | 4400 ft | 45 kts | 22° |
| 2026-05-08 07:28 | 27.69113 | 85.35670 | 4399 ft | 114 kts | 21° |
| 2026-05-08 07:28 | 27.70035 | 85.36087 | 4404 ft | 170 kts | 22° |
| 2026-05-08 07:28 | 27.71185 | 85.36599 | 4864 ft | 185 kts | 24° |
| 2026-05-08 07:28 | 27.72373 | 85.37142 | 5703 ft | 181 kts | 25° |
| 2026-05-08 07:29 | 27.73377 | 85.37791 | 5297 ft | 143 kts | 82° |